createdAt,value
2022-11-04T00:01:28.049Z,61.65
2022-11-04T00:04:31.494Z,61.70
2022-11-04T00:07:52.816Z,61.59
2022-11-04T00:11:17.890Z,61.74
2022-11-04T00:14:21.600Z,61.73
2022-11-04T00:17:24.581Z,61.68
2022-11-04T00:20:46.118Z,61.67
2022-11-04T00:24:07.664Z,61.71
2022-11-04T00:27:38.096Z,61.77
2022-11-04T00:30:40.997Z,61.77
2022-11-04T00:33:43.855Z,61.74
2022-11-04T00:36:46.769Z,61.83
2022-11-04T00:39:49.704Z,61.79
2022-11-04T00:42:52.579Z,61.90
2022-11-04T00:45:55.514Z,61.79
2022-11-04T00:48:58.968Z,61.86
2022-11-04T00:52:01.931Z,61.90
2022-11-04T00:55:05.281Z,61.92
2022-11-04T00:58:08.163Z,61.81
2022-11-04T01:01:13.580Z,61.90
2022-11-04T01:04:16.755Z,61.90
2022-11-04T01:07:19.715Z,61.84
2022-11-04T01:10:22.787Z,61.95
2022-11-04T01:13:25.663Z,61.86
2022-11-04T01:16:29.198Z,61.79
2022-11-04T01:19:32.478Z,61.77
2022-11-04T01:22:35.396Z,61.95
2022-11-04T01:25:41.549Z,61.92
2022-11-04T01:28:44.997Z,62.00
2022-11-04T01:31:47.873Z,61.80
2022-11-04T01:34:50.822Z,61.87
2022-11-04T01:37:53.734Z,61.87
2022-11-04T01:40:56.692Z,61.90
2022-11-04T01:44:00.870Z,62.09
2022-11-04T01:47:04.763Z,62.07
2022-11-04T01:50:10.665Z,61.99
2022-11-04T01:53:18.894Z,61.95
2022-11-04T01:56:23.184Z,61.90
2022-11-04T01:59:30.337Z,61.91
2022-11-04T02:02:33.741Z,61.86
2022-11-04T02:05:37.117Z,61.86
2022-11-04T02:08:41.145Z,61.84
2022-11-04T02:12:03.047Z,61.89
2022-11-04T02:15:06.380Z,61.88
2022-11-04T02:18:29.834Z,61.85
2022-11-04T02:22:23.872Z,61.87
2022-11-04T02:25:49.940Z,61.63
2022-11-04T02:29:14.472Z,61.59
2022-11-04T02:32:59.250Z,61.70
2022-11-04T02:36:24.727Z,61.59
2022-11-04T02:39:36.282Z,61.60
2022-11-04T02:42:55.160Z,61.53
2022-11-04T02:46:05.274Z,61.54
2022-11-04T02:49:15.616Z,61.58
2022-11-04T02:52:27.977Z,61.71
2022-11-04T02:55:40.795Z,61.61
2022-11-04T02:58:53.817Z,61.66
2022-11-04T03:01:59.247Z,61.80
2022-11-04T03:05:06.100Z,61.83
2022-11-04T03:08:14.758Z,61.78
2022-11-04T03:11:21.338Z,61.96
2022-11-04T03:14:29.591Z,62.04
2022-11-04T03:17:44.464Z,61.81
2022-11-04T03:20:49.035Z,61.83
2022-11-04T03:23:52.079Z,61.85
2022-11-04T03:27:23.162Z,61.99
2022-11-04T03:30:26.171Z,61.86
2022-11-04T03:33:43.140Z,61.74
2022-11-04T03:36:46.160Z,61.80
2022-11-04T03:39:49.233Z,61.65
2022-11-04T03:43:09.702Z,61.69
2022-11-04T03:46:13.106Z,61.55
2022-11-04T03:49:16.688Z,61.61
2022-11-04T03:52:20.268Z,61.52
2022-11-04T03:55:41.730Z,61.56
2022-11-04T03:59:04.671Z,61.45
2022-11-04T04:02:27.323Z,61.38
2022-11-04T04:05:41.671Z,61.43
2022-11-04T04:08:51.992Z,61.46
2022-11-04T04:12:00.897Z,61.37
2022-11-04T04:15:18.651Z,61.29
2022-11-04T04:18:39.021Z,61.26
2022-11-04T04:21:59.044Z,61.37
2022-11-04T04:25:25.390Z,61.37
2022-11-04T04:28:28.407Z,61.45
2022-11-04T04:31:52.548Z,61.33
2022-11-04T04:35:14.287Z,61.37
2022-11-04T04:38:40.845Z,61.37
2022-11-04T04:42:02.573Z,61.22
2022-11-04T04:45:06.833Z,61.31
2022-11-04T04:48:13.755Z,61.21
2022-11-04T04:51:16.852Z,61.22
2022-11-04T04:54:19.765Z,61.40
2022-11-04T04:57:22.749Z,61.32
2022-11-04T05:00:25.861Z,61.32
2022-11-04T05:03:28.740Z,61.36
2022-11-04T05:06:31.619Z,61.24
2022-11-04T05:09:34.532Z,61.31
2022-11-04T05:12:57.534Z,61.30
2022-11-04T05:16:09.539Z,61.34
2022-11-04T05:19:12.450Z,61.40
2022-11-04T05:22:15.800Z,61.27
2022-11-04T05:25:18.743Z,61.29
2022-11-04T05:28:21.658Z,61.40
2022-11-04T05:31:24.615Z,61.33
2022-11-04T05:34:27.547Z,61.28
2022-11-04T05:37:30.472Z,61.44
2022-11-04T05:40:33.536Z,61.39
2022-11-04T05:43:36.856Z,61.38
2022-11-04T05:46:39.818Z,61.30
2022-11-04T05:49:43.392Z,61.42
2022-11-04T05:52:46.334Z,61.55
2022-11-04T05:55:49.388Z,61.44
2022-11-04T05:58:52.403Z,61.35
2022-11-04T06:01:55.600Z,61.46
2022-11-04T06:04:59.226Z,61.37
2022-11-04T06:08:02.169Z,61.48
2022-11-04T06:11:05.507Z,61.34
2022-11-04T06:14:08.571Z,61.40
2022-11-04T06:17:20.727Z,61.44
2022-11-04T06:20:23.677Z,61.23
2022-11-04T06:23:26.545Z,61.36
2022-11-04T06:26:31.263Z,61.37
2022-11-04T06:29:34.236Z,61.43
2022-11-04T06:32:37.310Z,61.46
2022-11-04T06:35:40.223Z,61.46
2022-11-04T06:38:43.675Z,61.33
2022-11-04T06:41:50.489Z,61.21
2022-11-04T06:44:54.731Z,61.27
2022-11-04T06:47:58.074Z,61.18
2022-11-04T06:51:01.686Z,61.34
2022-11-04T06:54:04.682Z,61.06
2022-11-04T06:57:11.054Z,61.08
2022-11-04T07:00:14.432Z,61.11
2022-11-04T07:03:17.364Z,61.03
2022-11-04T07:06:21.268Z,61.06
2022-11-04T07:09:24.281Z,61.06
2022-11-04T07:12:27.196Z,61.04
2022-11-04T07:15:30.211Z,61.07
2022-11-04T07:18:33.258Z,60.95
2022-11-04T07:21:36.372Z,60.98
2022-11-04T07:24:39.334Z,61.06
2022-11-04T07:27:42.371Z,61.07
2022-11-04T07:30:45.314Z,61.01
2022-11-04T07:33:50.286Z,61.02
2022-11-04T07:36:53.344Z,61.09
2022-11-04T07:39:56.302Z,60.94
2022-11-04T07:42:59.248Z,61.09
2022-11-04T07:46:14.714Z,61.03
2022-11-04T07:49:17.617Z,60.85
2022-11-04T07:52:20.552Z,61.06
2022-11-04T07:55:23.455Z,60.99
2022-11-04T07:58:26.725Z,61.16
2022-11-04T08:01:29.680Z,61.11
2022-11-04T08:04:33.214Z,60.99
2022-11-04T08:07:36.503Z,61.15
2022-11-04T08:10:40.149Z,61.05
2022-11-04T08:13:43.687Z,61.09
2022-11-04T08:16:46.932Z,61.10
2022-11-04T08:19:49.865Z,60.98
2022-11-04T08:22:53.171Z,61.00
2022-11-04T08:25:57.597Z,61.12
2022-11-04T08:29:02.513Z,61.17
2022-11-04T08:32:07.398Z,61.08
2022-11-04T08:35:10.439Z,61.28
2022-11-04T08:38:13.486Z,61.19
2022-11-04T08:41:20.025Z,61.08
2022-11-04T08:44:23.962Z,61.26
2022-11-04T08:47:27.134Z,61.16
2022-11-04T08:50:30.856Z,61.35
2022-11-04T08:53:34.276Z,61.40
2022-11-04T08:56:39.331Z,61.38
2022-11-04T08:59:42.285Z,61.27
2022-11-04T09:02:45.149Z,61.34
2022-11-04T09:05:49.243Z,61.43
2022-11-04T09:08:55.575Z,61.52
2022-11-04T09:11:58.567Z,61.36
2022-11-04T09:15:02.453Z,61.33
2022-11-04T09:18:05.370Z,61.47
2022-11-04T09:21:10.777Z,61.55
2022-11-04T09:24:14.179Z,61.40
2022-11-04T09:27:17.466Z,61.43
2022-11-04T09:30:22.497Z,61.35
2022-11-04T09:33:25.481Z,61.47
2022-11-04T09:36:29.293Z,61.64
2022-11-04T09:39:32.440Z,61.47
2022-11-04T09:42:45.218Z,61.50
2022-11-04T09:45:48.253Z,61.41
2022-11-04T09:48:55.360Z,61.45
2022-11-04T09:51:59.512Z,61.38
2022-11-04T09:55:32.758Z,61.42
2022-11-04T09:58:39.126Z,61.46
2022-11-04T10:01:42.172Z,61.44
2022-11-04T10:05:18.324Z,61.49
2022-11-04T10:08:56.828Z,61.47
2022-11-04T10:12:08.837Z,61.54
2022-11-04T10:15:36.852Z,61.48
2022-11-04T10:19:15.154Z,61.58
2022-11-04T10:22:52.695Z,61.44
2022-11-04T10:26:13.862Z,61.45
2022-11-04T10:29:52.385Z,61.51
2022-11-04T10:33:30.013Z,61.52
2022-11-04T10:36:36.079Z,61.41
2022-11-04T10:39:47.199Z,61.40
2022-11-04T10:42:51.718Z,61.34
2022-11-04T10:46:24.403Z,61.47
2022-11-04T10:49:54.813Z,61.31
2022-11-04T10:53:20.100Z,61.46
2022-11-04T10:56:39.726Z,61.36
2022-11-04T11:00:01.775Z,61.33
2022-11-04T11:03:24.042Z,61.40
2022-11-04T11:06:27.048Z,61.34
2022-11-04T11:09:33.742Z,61.36
2022-11-04T11:12:51.481Z,61.37
2022-11-04T11:16:17.511Z,61.24
2022-11-04T11:19:25.008Z,61.33
2022-11-04T11:22:32.672Z,61.29
2022-11-04T11:25:50.625Z,61.25
2022-11-04T11:29:07.375Z,61.12
2022-11-04T11:32:33.225Z,61.13
2022-11-04T11:35:51.528Z,61.08
2022-11-04T11:39:05.869Z,61.17
2022-11-04T11:42:16.287Z,61.26
2022-11-04T11:45:23.501Z,61.18
2022-11-04T11:49:03.076Z,61.20
2022-11-04T11:52:20.463Z,61.28
2022-11-04T11:55:37.234Z,61.16
2022-11-04T12:02:34.643Z,61.17
2022-11-04T12:09:34.046Z,61.31
2022-11-04T12:13:05.121Z,61.19
2022-11-04T12:16:10.969Z,61.19
2022-11-04T12:19:46.641Z,61.31
2022-11-04T12:22:59.828Z,61.44
2022-11-04T12:26:21.518Z,61.35
2022-11-04T12:29:41.072Z,61.26
2022-11-04T12:33:19.615Z,61.20
2022-11-04T12:36:44.077Z,61.30
2022-11-04T12:40:08.692Z,61.25
2022-11-04T12:43:36.406Z,61.27
2022-11-04T12:47:04.592Z,61.38
2022-11-04T12:50:31.728Z,61.37
2022-11-04T12:53:42.819Z,61.53
2022-11-04T12:56:58.219Z,61.50
2022-11-04T13:00:06.385Z,61.42
2022-11-04T13:03:16.364Z,61.59
2022-11-04T13:06:27.390Z,61.60
2022-11-04T13:09:41.568Z,61.70
2022-11-04T13:12:50.222Z,61.80
2022-11-04T13:15:58.260Z,61.98
2022-11-04T13:19:02.017Z,61.98
2022-11-04T13:22:14.550Z,62.02
2022-11-04T13:25:23.945Z,62.04
2022-11-04T13:28:27.056Z,62.14
2022-11-04T13:31:54.308Z,62.25
2022-11-04T13:35:26.057Z,62.27
2022-11-04T13:38:36.933Z,62.39
2022-11-04T13:42:12.180Z,62.39
2022-11-04T13:45:18.847Z,62.47
2022-11-04T13:48:32.830Z,62.66
2022-11-04T13:51:39.427Z,62.88
2022-11-04T13:54:53.801Z,63.00
2022-11-04T13:58:01.666Z,63.01
2022-11-04T14:01:29.353Z,62.91
2022-11-04T14:04:32.499Z,63.05
2022-11-04T14:08:03.393Z,63.20
2022-11-04T14:11:10.316Z,63.25
2022-11-04T14:14:19.972Z,63.20
2022-11-04T14:17:35.425Z,63.40
2022-11-04T14:21:07.213Z,63.37
2022-11-04T14:24:16.271Z,63.51
2022-11-04T14:27:28.047Z,63.53
2022-11-04T14:30:44.430Z,63.57
2022-11-04T14:33:56.243Z,63.77
2022-11-04T14:37:01.975Z,63.67
2022-11-04T14:40:08.064Z,63.84
2022-11-04T14:43:38.939Z,63.99
2022-11-04T14:46:45.090Z,64.18
2022-11-04T14:49:52.844Z,64.23
2022-11-04T14:53:03.858Z,64.34
2022-11-04T14:56:23.268Z,64.40
2022-11-04T14:59:29.067Z,64.50
2022-11-04T15:02:33.942Z,64.52
2022-11-04T15:05:39.184Z,64.59
2022-11-04T15:08:42.151Z,64.71
2022-11-04T15:12:03.520Z,64.78
2022-11-04T15:15:28.159Z,64.76
2022-11-04T15:18:32.123Z,64.91
2022-11-04T15:21:43.552Z,65.19
2022-11-04T15:24:46.912Z,65.07
2022-11-04T15:27:50.012Z,65.13
2022-11-04T15:31:02.556Z,65.25
2022-11-04T15:34:14.082Z,65.40
2022-11-04T15:37:17.826Z,65.39
2022-11-04T15:40:22.180Z,65.32
2022-11-04T15:43:25.235Z,65.53
2022-11-04T15:46:29.586Z,65.37
2022-11-04T15:49:35.455Z,65.46
2022-11-04T15:52:38.414Z,65.44
2022-11-04T15:55:41.459Z,65.43
2022-11-04T15:58:45.519Z,65.29
2022-11-04T16:01:52.163Z,65.26
2022-11-04T16:05:06.974Z,65.35
2022-11-04T16:08:27.408Z,65.38
2022-11-04T16:11:30.569Z,65.42
2022-11-04T16:14:34.243Z,65.58
2022-11-04T16:17:44.990Z,65.70
2022-11-04T16:20:49.152Z,65.66
2022-11-04T16:23:56.937Z,65.65
2022-11-04T16:27:00.733Z,65.69
2022-11-04T16:30:21.667Z,65.74
2022-11-04T16:33:24.696Z,65.84
2022-11-04T16:36:34.087Z,65.71
2022-11-04T16:39:39.239Z,65.84
2022-11-04T16:42:44.184Z,65.76
2022-11-04T16:45:53.587Z,65.79
2022-11-04T16:48:56.908Z,65.90
2022-11-04T16:52:03.444Z,65.86
2022-11-04T16:55:07.060Z,66.19
2022-11-04T16:58:17.516Z,66.15
2022-11-04T17:01:21.411Z,66.28
2022-11-04T17:04:24.471Z,66.37
2022-11-04T17:07:51.171Z,66.23
2022-11-04T17:10:50.717Z,66.23
2022-11-04T17:13:53.643Z,66.18
2022-11-04T17:16:59.412Z,66.31
2022-11-04T17:20:02.285Z,66.36
2022-11-04T17:23:05.410Z,66.45
2022-11-04T17:26:09.642Z,67.02
2022-11-04T17:29:17.049Z,66.81
2022-11-04T17:32:20.485Z,66.71
2022-11-04T17:35:23.807Z,66.58
2022-11-04T17:38:27.509Z,66.65
2022-11-04T17:41:49.101Z,66.72
2022-11-04T17:44:52.572Z,66.83
2022-11-04T17:47:55.587Z,66.90
2022-11-04T17:50:58.614Z,66.85
2022-11-04T17:54:02.233Z,66.85
2022-11-04T17:57:05.199Z,66.94
2022-11-04T18:00:08.907Z,66.91
2022-11-04T18:03:12.471Z,67.09
2022-11-04T18:06:15.671Z,67.08
2022-11-04T18:09:18.818Z,67.26
2022-11-04T18:12:37.120Z,67.19
2022-11-04T18:15:40.126Z,67.37
2022-11-04T18:18:43.045Z,67.46
2022-11-04T18:21:47.336Z,67.37
2022-11-04T18:24:50.392Z,67.46
2022-11-04T18:27:53.352Z,67.39
2022-11-04T18:30:56.317Z,67.31
2022-11-04T18:34:01.779Z,67.52
2022-11-04T18:37:04.723Z,67.58
2022-11-04T18:40:08.142Z,67.61
2022-11-04T18:43:11.279Z,67.74
2022-11-04T18:46:16.102Z,67.96
2022-11-04T18:49:20.628Z,67.92
2022-11-04T18:52:24.038Z,68.00
2022-11-04T18:55:27.025Z,68.03
2022-11-04T18:58:34.999Z,68.12
2022-11-04T19:01:38.854Z,68.30
2022-11-04T19:04:41.998Z,68.14
2022-11-04T19:07:45.042Z,68.34
2022-11-04T19:11:00.482Z,68.42
2022-11-04T19:14:09.552Z,68.53
2022-11-04T19:17:12.706Z,68.61
2022-11-04T19:20:16.320Z,68.73
2022-11-04T19:23:19.277Z,68.86
2022-11-04T19:26:24.041Z,68.88
2022-11-04T19:29:27.051Z,69.03
2022-11-04T19:32:30.012Z,68.91
2022-11-04T19:35:33.055Z,69.25
2022-11-04T19:38:36.429Z,69.39
2022-11-04T19:41:58.094Z,69.51
2022-11-04T19:45:01.533Z,69.71
2022-11-04T19:48:04.962Z,69.83
2022-11-04T19:51:11.963Z,69.91
2022-11-04T19:54:14.885Z,69.97
2022-11-04T19:57:17.803Z,70.00
2022-11-04T20:00:20.857Z,70.29
2022-11-04T20:03:24.005Z,70.40
2022-11-04T20:06:26.931Z,70.46
2022-11-04T20:09:29.873Z,70.59
2022-11-04T20:12:54.133Z,70.59
2022-11-04T20:15:57.364Z,71.52
2022-11-04T20:19:04.215Z,71.38
2022-11-04T20:22:07.134Z,71.14
2022-11-04T20:25:10.232Z,71.18
2022-11-04T20:28:13.448Z,71.34
2022-11-04T20:31:19.189Z,71.42
2022-11-04T20:34:22.277Z,71.44
2022-11-04T20:37:26.143Z,71.46
2022-11-04T20:40:30.084Z,71.50
2022-11-04T20:43:38.939Z,71.56
2022-11-04T20:46:42.871Z,71.69
2022-11-04T20:49:45.980Z,71.64
2022-11-04T20:52:48.898Z,71.81
2022-11-04T20:55:51.985Z,71.76
2022-11-04T20:58:59.408Z,71.90
2022-11-04T21:02:02.924Z,71.94
2022-11-04T21:05:06.356Z,72.14
2022-11-04T21:08:09.814Z,72.13
2022-11-04T21:11:13.334Z,72.34
2022-11-04T21:14:19.470Z,72.32
2022-11-04T21:17:22.673Z,72.32
2022-11-04T21:20:25.596Z,72.56
2022-11-04T21:23:28.988Z,72.59
2022-11-04T21:26:34.305Z,72.64
2022-11-04T21:29:37.245Z,72.73
2022-11-04T21:32:40.217Z,72.70
2022-11-04T21:35:43.769Z,72.82
2022-11-04T21:38:47.019Z,72.88
2022-11-04T21:41:50.240Z,72.96
2022-11-04T21:44:53.185Z,73.02
2022-11-04T21:47:56.170Z,73.05
2022-11-04T21:51:07.132Z,73.02
2022-11-04T21:54:10.738Z,72.87
2022-11-04T21:57:13.712Z,73.06
2022-11-04T22:00:16.709Z,73.07
2022-11-04T22:03:19.629Z,73.16
2022-11-04T22:06:22.996Z,73.23
2022-11-04T22:09:25.882Z,73.29
2022-11-04T22:12:29.817Z,73.26
2022-11-04T22:15:51.973Z,73.44
2022-11-04T22:18:57.544Z,73.37
2022-11-04T22:22:00.448Z,73.41
2022-11-04T22:25:03.603Z,73.48
2022-11-04T22:28:06.598Z,73.42
2022-11-04T22:31:24.724Z,73.46
2022-11-04T22:34:27.840Z,73.41
2022-11-04T22:37:31.220Z,73.53
2022-11-04T22:40:34.786Z,73.53
2022-11-04T22:43:38.046Z,73.57
2022-11-04T22:46:41.185Z,73.69
2022-11-04T22:49:44.171Z,73.74
2022-11-04T22:52:47.605Z,73.78
2022-11-04T22:55:50.929Z,73.75
2022-11-04T22:58:54.370Z,73.76
2022-11-04T23:01:57.570Z,73.68
2022-11-04T23:05:01.047Z,73.71
2022-11-04T23:08:04.110Z,73.69
2022-11-04T23:11:35.014Z,73.65
2022-11-04T23:14:37.935Z,73.50
2022-11-04T23:17:59.510Z,73.54
2022-11-04T23:21:20.837Z,73.27
2022-11-04T23:24:42.281Z,72.98
2022-11-04T23:28:06.227Z,72.91
2022-11-04T23:31:09.139Z,73.01
2022-11-04T23:34:30.609Z,72.80
2022-11-04T23:37:33.579Z,72.60
2022-11-04T23:40:36.684Z,72.31
2022-11-04T23:43:39.622Z,72.22
2022-11-04T23:47:01.143Z,72.03
2022-11-04T23:50:22.997Z,71.80
2022-11-04T23:53:44.803Z,71.43
2022-11-04T23:57:06.559Z,71.57
